sensor_id;sensor_type;location;lat;lon;timestamp;P1;durP1;ratioP1;P2;durP2;ratioP2
76593;SDS011;65482;50.240;14.302;2023-03-01T00:01:38;59.28;;;22.92;;
76593;SDS011;65482;50.240;14.302;2023-03-01T00:04:25;60.95;;;23.88;;
76593;SDS011;65482;50.240;14.302;2023-03-01T00:07:23;59.13;;;23.67;;
76593;SDS011;65482;50.240;14.302;2023-03-01T00:10:33;56.75;;;22.67;;
76593;SDS011;65482;50.240;14.302;2023-03-01T00:13:22;53.40;;;23.20;;
76593;SDS011;65482;50.240;14.302;2023-03-01T00:19:06;67.38;;;24.42;;
76593;SDS011;65482;50.240;14.302;2023-03-01T00:22:26;59.15;;;23.63;;
76593;SDS011;65482;50.240;14.302;2023-03-01T00:25:31;58.88;;;23.13;;
76593;SDS011;65482;50.240;14.302;2023-03-01T00:28:44;54.80;;;22.73;;
76593;SDS011;65482;50.240;14.302;2023-03-01T00:31:27;60.80;;;23.10;;
76593;SDS011;65482;50.240;14.302;2023-03-01T00:34:17;58.40;;;23.83;;
76593;SDS011;65482;50.240;14.302;2023-03-01T00:37:34;57.83;;;23.33;;
76593;SDS011;65482;50.240;14.302;2023-03-01T00:40:35;63.13;;;23.80;;
76593;SDS011;65482;50.240;14.302;2023-03-01T00:43:27;54.47;;;23.05;;
76593;SDS011;65482;50.240;14.302;2023-03-01T00:46:12;53.78;;;23.08;;
76593;SDS011;65482;50.240;14.302;2023-03-01T00:48:54;57.25;;;23.95;;
76593;SDS011;65482;50.240;14.302;2023-03-01T00:52:00;54.90;;;20.92;;
76593;SDS011;65482;50.240;14.302;2023-03-01T00:54:42;62.70;;;23.85;;
76593;SDS011;65482;50.240;14.302;2023-03-01T00:57:32;52.20;;;22.55;;
76593;SDS011;65482;50.240;14.302;2023-03-01T01:00:17;56.15;;;23.00;;
76593;SDS011;65482;50.240;14.302;2023-03-01T01:03:05;59.25;;;23.80;;
76593;SDS011;65482;50.240;14.302;2023-03-01T01:06:01;57.95;;;23.00;;
76593;SDS011;65482;50.240;14.302;2023-03-01T01:08:51;53.60;;;22.15;;
76593;SDS011;65482;50.240;14.302;2023-03-01T01:11:48;54.75;;;21.90;;
76593;SDS011;65482;50.240;14.302;2023-03-01T01:14:36;68.35;;;24.83;;
76593;SDS011;65482;50.240;14.302;2023-03-01T01:17:36;65.63;;;22.45;;
76593;SDS011;65482;50.240;14.302;2023-03-01T01:20:18;66.20;;;24.60;;
76593;SDS011;65482;50.240;14.302;2023-03-01T01:23:14;60.88;;;24.45;;
76593;SDS011;65482;50.240;14.302;2023-03-01T01:26:08;63.08;;;23.13;;
76593;SDS011;65482;50.240;14.302;2023-03-01T01:29:29;58.97;;;22.88;;
76593;SDS011;65482;50.240;14.302;2023-03-01T01:32:33;55.13;;;22.38;;
76593;SDS011;65482;50.240;14.302;2023-03-01T01:35:40;50.65;;;21.30;;
76593;SDS011;65482;50.240;14.302;2023-03-01T01:38:22;59.00;;;22.75;;
76593;SDS011;65482;50.240;14.302;2023-03-01T01:40:58;57.65;;;22.08;;
76593;SDS011;65482;50.240;14.302;2023-03-01T01:47:02;62.22;;;22.92;;
76593;SDS011;65482;50.240;14.302;2023-03-01T01:49:44;57.20;;;24.25;;
76593;SDS011;65482;50.240;14.302;2023-03-01T01:52:56;63.40;;;23.83;;
76593;SDS011;65482;50.240;14.302;2023-03-01T01:55:47;55.60;;;21.80;;
76593;SDS011;65482;50.240;14.302;2023-03-01T02:08:21;56.35;;;21.83;;
76593;SDS011;65482;50.240;14.302;2023-03-01T02:11:02;52.30;;;21.17;;
76593;SDS011;65482;50.240;14.302;2023-03-01T02:13:55;59.63;;;23.20;;
76593;SDS011;65482;50.240;14.302;2023-03-01T02:17:01;60.78;;;22.63;;
76593;SDS011;65482;50.240;14.302;2023-03-01T02:22:46;59.28;;;22.77;;
76593;SDS011;65482;50.240;14.302;2023-03-01T02:25:49;63.53;;;23.00;;
76593;SDS011;65482;50.240;14.302;2023-03-01T02:28:54;61.17;;;22.92;;
76593;SDS011;65482;50.240;14.302;2023-03-01T02:32:04;59.75;;;24.42;;
76593;SDS011;65482;50.240;14.302;2023-03-01T02:34:50;57.55;;;22.75;;
76593;SDS011;65482;50.240;14.302;2023-03-01T02:37:46;58.65;;;21.95;;
76593;SDS011;65482;50.240;14.302;2023-03-01T02:40:44;56.38;;;20.75;;
76593;SDS011;65482;50.240;14.302;2023-03-01T02:43:22;55.83;;;22.65;;
76593;SDS011;65482;50.240;14.302;2023-03-01T02:46:42;55.80;;;21.27;;
76593;SDS011;65482;50.240;14.302;2023-03-01T02:49:33;57.97;;;22.23;;
76593;SDS011;65482;50.240;14.302;2023-03-01T02:52:43;51.88;;;21.38;;
76593;SDS011;65482;50.240;14.302;2023-03-01T02:55:37;54.03;;;21.38;;
76593;SDS011;65482;50.240;14.302;2023-03-01T02:58:22;61.45;;;23.92;;
76593;SDS011;65482;50.240;14.302;2023-03-01T03:01:16;55.05;;;21.20;;
76593;SDS011;65482;50.240;14.302;2023-03-01T03:03:51;57.88;;;22.20;;
76593;SDS011;65482;50.240;14.302;2023-03-01T03:06:40;49.95;;;20.77;;
76593;SDS011;65482;50.240;14.302;2023-03-01T03:09:25;58.38;;;22.45;;
76593;SDS011;65482;50.240;14.302;2023-03-01T03:12:13;51.88;;;22.05;;
76593;SDS011;65482;50.240;14.302;2023-03-01T03:14:54;59.03;;;22.98;;
76593;SDS011;65482;50.240;14.302;2023-03-01T03:17:57;50.20;;;21.45;;
76593;SDS011;65482;50.240;14.302;2023-03-01T03:20:24;50.75;;;21.55;;
76593;SDS011;65482;50.240;14.302;2023-03-01T03:22:53;56.08;;;23.27;;
76593;SDS011;65482;50.240;14.302;2023-03-01T03:25:21;65.43;;;25.45;;
76593;SDS011;65482;50.240;14.302;2023-03-01T03:27:48;60.03;;;22.83;;
76593;SDS011;65482;50.240;14.302;2023-03-01T03:30:16;60.35;;;23.00;;
76593;SDS011;65482;50.240;14.302;2023-03-01T03:32:44;63.17;;;23.77;;
76593;SDS011;65482;50.240;14.302;2023-03-01T03:35:18;64.18;;;24.80;;
76593;SDS011;65482;50.240;14.302;2023-03-01T03:37:49;55.63;;;22.45;;
76593;SDS011;65482;50.240;14.302;2023-03-01T03:40:29;56.03;;;22.92;;
76593;SDS011;65482;50.240;14.302;2023-03-01T03:42:57;53.55;;;22.42;;
76593;SDS011;65482;50.240;14.302;2023-03-01T03:45:23;48.28;;;20.80;;
76593;SDS011;65482;50.240;14.302;2023-03-01T03:47:48;53.08;;;21.60;;
76593;SDS011;65482;50.240;14.302;2023-03-01T03:50:15;55.60;;;21.95;;
76593;SDS011;65482;50.240;14.302;2023-03-01T03:52:42;56.33;;;21.60;;
76593;SDS011;65482;50.240;14.302;2023-03-01T03:55:09;52.63;;;22.40;;
76593;SDS011;65482;50.240;14.302;2023-03-01T03:57:37;62.53;;;24.27;;
76593;SDS011;65482;50.240;14.302;2023-03-01T04:00:04;53.80;;;21.80;;
76593;SDS011;65482;50.240;14.302;2023-03-01T04:02:31;59.08;;;22.67;;
76593;SDS011;65482;50.240;14.302;2023-03-01T04:04:57;54.28;;;22.63;;
76593;SDS011;65482;50.240;14.302;2023-03-01T04:07:22;55.92;;;23.00;;
76593;SDS011;65482;50.240;14.302;2023-03-01T04:09:54;52.05;;;21.27;;
76593;SDS011;65482;50.240;14.302;2023-03-01T04:12:19;56.25;;;21.80;;
76593;SDS011;65482;50.240;14.302;2023-03-01T04:14:57;54.22;;;21.17;;
76593;SDS011;65482;50.240;14.302;2023-03-01T04:17:34;56.85;;;20.63;;
76593;SDS011;65482;50.240;14.302;2023-03-01T04:20:46;52.85;;;22.30;;
76593;SDS011;65482;50.240;14.302;2023-03-01T04:23:30;61.22;;;21.95;;
76593;SDS011;65482;50.240;14.302;2023-03-01T04:26:23;50.47;;;20.95;;
76593;SDS011;65482;50.240;14.302;2023-03-01T04:29:05;55.45;;;21.58;;
76593;SDS011;65482;50.240;14.302;2023-03-01T04:31:59;54.58;;;21.77;;
76593;SDS011;65482;50.240;14.302;2023-03-01T04:34:50;51.10;;;21.42;;
76593;SDS011;65482;50.240;14.302;2023-03-01T04:37:30;58.63;;;22.38;;
76593;SDS011;65482;50.240;14.302;2023-03-01T04:40:10;51.83;;;20.77;;
76593;SDS011;65482;50.240;14.302;2023-03-01T04:43:00;51.38;;;21.38;;
76593;SDS011;65482;50.240;14.302;2023-03-01T04:46:11;59.33;;;21.88;;
76593;SDS011;65482;50.240;14.302;2023-03-01T04:49:02;57.58;;;21.70;;
76593;SDS011;65482;50.240;14.302;2023-03-01T04:51:55;53.72;;;22.60;;
76593;SDS011;65482;50.240;14.302;2023-03-01T04:54:47;57.88;;;21.55;;
76593;SDS011;65482;50.240;14.302;2023-03-01T04:57:19;51.58;;;20.90;;
76593;SDS011;65482;50.240;14.302;2023-03-01T05:00:05;54.28;;;20.98;;
76593;SDS011;65482;50.240;14.302;2023-03-01T05:03:00;55.60;;;22.08;;
76593;SDS011;65482;50.240;14.302;2023-03-01T05:05:40;50.13;;;22.27;;
76593;SDS011;65482;50.240;14.302;2023-03-01T05:08:28;56.78;;;21.67;;
76593;SDS011;65482;50.240;14.302;2023-03-01T05:11:15;56.10;;;22.38;;
76593;SDS011;65482;50.240;14.302;2023-03-01T05:14:02;53.20;;;21.17;;
76593;SDS011;65482;50.240;14.302;2023-03-01T05:16:52;62.33;;;22.40;;
76593;SDS011;65482;50.240;14.302;2023-03-01T05:19:38;58.65;;;21.92;;
76593;SDS011;65482;50.240;14.302;2023-03-01T05:22:26;58.83;;;22.40;;
76593;SDS011;65482;50.240;14.302;2023-03-01T05:25:04;60.55;;;23.20;;
76593;SDS011;65482;50.240;14.302;2023-03-01T05:31:27;60.05;;;23.13;;
76593;SDS011;65482;50.240;14.302;2023-03-01T05:33:59;65.18;;;24.50;;
76593;SDS011;65482;50.240;14.302;2023-03-01T05:36:53;61.72;;;22.48;;
76593;SDS011;65482;50.240;14.302;2023-03-01T05:39:32;56.00;;;22.30;;
76593;SDS011;65482;50.240;14.302;2023-03-01T05:42:23;55.80;;;21.90;;
76593;SDS011;65482;50.240;14.302;2023-03-01T05:45:31;58.40;;;24.23;;
76593;SDS011;65482;50.240;14.302;2023-03-01T05:48:22;67.25;;;23.73;;
76593;SDS011;65482;50.240;14.302;2023-03-01T05:51:26;64.63;;;23.73;;
76593;SDS011;65482;50.240;14.302;2023-03-01T05:54:08;59.88;;;22.27;;
76593;SDS011;65482;50.240;14.302;2023-03-01T05:57:04;60.58;;;22.75;;
76593;SDS011;65482;50.240;14.302;2023-03-01T05:59:58;58.03;;;22.15;;
76593;SDS011;65482;50.240;14.302;2023-03-01T06:02:53;56.55;;;21.70;;
76593;SDS011;65482;50.240;14.302;2023-03-01T06:05:46;55.35;;;21.63;;
76593;SDS011;65482;50.240;14.302;2023-03-01T06:08:52;50.30;;;21.40;;
76593;SDS011;65482;50.240;14.302;2023-03-01T06:19:16;59.17;;;21.25;;
76593;SDS011;65482;50.240;14.302;2023-03-01T06:21:54;57.35;;;20.63;;
76593;SDS011;65482;50.240;14.302;2023-03-01T06:41:17;65.27;;;25.03;;
76593;SDS011;65482;50.240;14.302;2023-03-01T07:10:13;61.20;;;24.65;;
76593;SDS011;65482;50.240;14.302;2023-03-01T07:21:04;58.25;;;26.73;;
76593;SDS011;65482;50.240;14.302;2023-03-01T07:35:20;56.35;;;27.33;;
76593;SDS011;65482;50.240;14.302;2023-03-01T07:38:22;61.20;;;28.30;;
76593;SDS011;65482;50.240;14.302;2023-03-01T07:41:40;60.42;;;28.20;;
76593;SDS011;65482;50.240;14.302;2023-03-01T07:56:14;53.40;;;25.60;;
76593;SDS011;65482;50.240;14.302;2023-03-01T07:58:49;46.65;;;25.33;;
76593;SDS011;65482;50.240;14.302;2023-03-01T08:01:59;49.08;;;26.25;;
76593;SDS011;65482;50.240;14.302;2023-03-01T08:04:26;56.15;;;27.05;;
76593;SDS011;65482;50.240;14.302;2023-03-01T08:06:52;50.92;;;26.08;;
76593;SDS011;65482;50.240;14.302;2023-03-01T08:09:19;50.08;;;26.05;;
76593;SDS011;65482;50.240;14.302;2023-03-01T08:11:47;53.28;;;26.27;;
76593;SDS011;65482;50.240;14.302;2023-03-01T08:14:27;51.97;;;25.95;;
76593;SDS011;65482;50.240;14.302;2023-03-01T08:16:53;50.70;;;25.92;;
76593;SDS011;65482;50.240;14.302;2023-03-01T08:19:27;50.95;;;23.70;;
76593;SDS011;65482;50.240;14.302;2023-03-01T08:38:47;45.40;;;22.10;;
76593;SDS011;65482;50.240;14.302;2023-03-01T08:42:26;41.55;;;21.60;;
76593;SDS011;65482;50.240;14.302;2023-03-01T08:44:52;44.00;;;22.08;;
76593;SDS011;65482;50.240;14.302;2023-03-01T08:47:17;41.70;;;22.15;;
76593;SDS011;65482;50.240;14.302;2023-03-01T08:49:43;41.42;;;22.02;;
76593;SDS011;65482;50.240;14.302;2023-03-01T08:52:09;48.15;;;21.35;;
76593;SDS011;65482;50.240;14.302;2023-03-01T08:54:34;46.97;;;23.45;;
76593;SDS011;65482;50.240;14.302;2023-03-01T08:57:03;40.58;;;21.02;;
76593;SDS011;65482;50.240;14.302;2023-03-01T08:59:28;44.63;;;21.88;;
76593;SDS011;65482;50.240;14.302;2023-03-01T09:01:57;40.67;;;20.38;;
76593;SDS011;65482;50.240;14.302;2023-03-01T09:20:46;55.23;;;36.80;;
76593;SDS011;65482;50.240;14.302;2023-03-01T09:32:35;37.10;;;18.23;;
76593;SDS011;65482;50.240;14.302;2023-03-01T09:35:01;31.83;;;17.40;;
76593;SDS011;65482;50.240;14.302;2023-03-01T09:38:33;32.22;;;17.13;;
76593;SDS011;65482;50.240;14.302;2023-03-01T09:46:14;35.72;;;19.38;;
76593;SDS011;65482;50.240;14.302;2023-03-01T09:52:02;31.90;;;16.05;;
76593;SDS011;65482;50.240;14.302;2023-03-01T09:54:37;35.90;;;17.42;;
76593;SDS011;65482;50.240;14.302;2023-03-01T10:23:18;29.03;;;15.67;;
76593;SDS011;65482;50.240;14.302;2023-03-01T10:40:16;33.67;;;17.13;;
76593;SDS011;65482;50.240;14.302;2023-03-01T10:42:46;29.90;;;15.82;;
76593;SDS011;65482;50.240;14.302;2023-03-01T10:47:44;30.10;;;16.20;;
76593;SDS011;65482;50.240;14.302;2023-03-01T10:50:21;31.60;;;15.95;;
76593;SDS011;65482;50.240;14.302;2023-03-01T10:53:48;34.85;;;16.92;;
76593;SDS011;65482;50.240;14.302;2023-03-01T10:56:09;31.20;;;15.95;;
76593;SDS011;65482;50.240;14.302;2023-03-01T10:58:39;28.38;;;15.15;;
76593;SDS011;65482;50.240;14.302;2023-03-01T11:13:34;30.05;;;16.40;;
76593;SDS011;65482;50.240;14.302;2023-03-01T11:16:05;36.70;;;16.67;;
76593;SDS011;65482;50.240;14.302;2023-03-01T11:18:35;32.40;;;16.13;;
76593;SDS011;65482;50.240;14.302;2023-03-01T11:21:01;32.33;;;15.55;;
76593;SDS011;65482;50.240;14.302;2023-03-01T11:23:28;28.02;;;15.25;;
76593;SDS011;65482;50.240;14.302;2023-03-01T11:25:57;34.13;;;16.27;;
76593;SDS011;65482;50.240;14.302;2023-03-01T11:28:27;30.75;;;15.77;;
76593;SDS011;65482;50.240;14.302;2023-03-01T11:31:02;28.65;;;14.93;;
76593;SDS011;65482;50.240;14.302;2023-03-01T11:34:18;33.72;;;16.73;;
76593;SDS011;65482;50.240;14.302;2023-03-01T11:39:23;30.67;;;15.40;;
76593;SDS011;65482;50.240;14.302;2023-03-01T11:41:52;32.80;;;16.13;;
76593;SDS011;65482;50.240;14.302;2023-03-01T11:44:29;32.75;;;16.80;;
76593;SDS011;65482;50.240;14.302;2023-03-01T11:47:04;32.97;;;16.33;;
76593;SDS011;65482;50.240;14.302;2023-03-01T11:58:22;27.33;;;14.25;;
76593;SDS011;65482;50.240;14.302;2023-03-01T12:52:41;25.15;;;13.10;;
76593;SDS011;65482;50.240;14.302;2023-03-01T12:59:56;26.83;;;14.25;;
76593;SDS011;65482;50.240;14.302;2023-03-01T13:02:39;28.17;;;14.25;;
76593;SDS011;65482;50.240;14.302;2023-03-01T13:13:23;27.63;;;15.75;;
76593;SDS011;65482;50.240;14.302;2023-03-01T13:27:40;29.23;;;15.20;;
76593;SDS011;65482;50.240;14.302;2023-03-01T13:43:42;25.98;;;13.10;;
76593;SDS011;65482;50.240;14.302;2023-03-01T13:46:28;24.38;;;12.68;;
76593;SDS011;65482;50.240;14.302;2023-03-01T14:09:31;24.65;;;13.25;;
76593;SDS011;65482;50.240;14.302;2023-03-01T14:21:41;25.35;;;13.13;;
76593;SDS011;65482;50.240;14.302;2023-03-01T14:24:20;22.83;;;12.27;;
76593;SDS011;65482;50.240;14.302;2023-03-01T14:27:02;29.15;;;12.77;;
76593;SDS011;65482;50.240;14.302;2023-03-01T14:29:36;26.40;;;13.00;;
76593;SDS011;65482;50.240;14.302;2023-03-01T14:32:20;20.30;;;11.25;;
76593;SDS011;65482;50.240;14.302;2023-03-01T14:34:48;20.48;;;11.32;;
76593;SDS011;65482;50.240;14.302;2023-03-01T14:37:17;23.38;;;11.65;;
76593;SDS011;65482;50.240;14.302;2023-03-01T14:39:46;23.33;;;12.48;;
76593;SDS011;65482;50.240;14.302;2023-03-01T14:42:13;21.70;;;11.15;;
76593;SDS011;65482;50.240;14.302;2023-03-01T14:44:41;21.35;;;12.20;;
76593;SDS011;65482;50.240;14.302;2023-03-01T14:47:31;22.73;;;12.32;;
76593;SDS011;65482;50.240;14.302;2023-03-01T14:50:21;22.00;;;11.73;;
76593;SDS011;65482;50.240;14.302;2023-03-01T14:53:32;122.70;;;59.05;;
76593;SDS011;65482;50.240;14.302;2023-03-01T14:56:47;27.80;;;15.73;;
76593;SDS011;65482;50.240;14.302;2023-03-01T15:09:54;24.27;;;12.60;;
76593;SDS011;65482;50.240;14.302;2023-03-01T15:13:09;26.80;;;12.57;;
76593;SDS011;65482;50.240;14.302;2023-03-01T15:16:59;22.60;;;12.00;;
76593;SDS011;65482;50.240;14.302;2023-03-01T15:20:25;25.45;;;13.15;;
76593;SDS011;65482;50.240;14.302;2023-03-01T15:23:28;24.20;;;13.15;;
76593;SDS011;65482;50.240;14.302;2023-03-01T15:26:00;24.20;;;12.65;;
76593;SDS011;65482;50.240;14.302;2023-03-01T15:32:34;37.50;;;20.27;;
76593;SDS011;65482;50.240;14.302;2023-03-01T15:41:22;31.38;;;16.38;;
76593;SDS011;65482;50.240;14.302;2023-03-01T15:44:16;22.63;;;11.93;;
76593;SDS011;65482;50.240;14.302;2023-03-01T15:46:52;35.33;;;17.65;;
76593;SDS011;65482;50.240;14.302;2023-03-01T15:52:28;28.02;;;13.55;;
76593;SDS011;65482;50.240;14.302;2023-03-01T15:55:03;25.48;;;13.55;;
76593;SDS011;65482;50.240;14.302;2023-03-01T15:57:39;45.15;;;21.15;;
76593;SDS011;65482;50.240;14.302;2023-03-01T16:00:12;57.03;;;31.20;;
76593;SDS011;65482;50.240;14.302;2023-03-01T16:02:40;27.58;;;15.27;;
76593;SDS011;65482;50.240;14.302;2023-03-01T16:05:30;23.98;;;12.93;;
76593;SDS011;65482;50.240;14.302;2023-03-01T16:11:37;30.33;;;15.40;;
76593;SDS011;65482;50.240;14.302;2023-03-01T16:14:38;34.90;;;19.10;;
76593;SDS011;65482;50.240;14.302;2023-03-01T16:17:36;31.92;;;18.40;;
76593;SDS011;65482;50.240;14.302;2023-03-01T16:20:39;27.80;;;13.95;;
76593;SDS011;65482;50.240;14.302;2023-03-01T16:23:59;30.92;;;15.82;;
76593;SDS011;65482;50.240;14.302;2023-03-01T16:27:01;38.70;;;15.95;;
76593;SDS011;65482;50.240;14.302;2023-03-01T16:30:20;32.30;;;16.08;;
76593;SDS011;65482;50.240;14.302;2023-03-01T16:32:48;27.73;;;14.55;;
76593;SDS011;65482;50.240;14.302;2023-03-01T16:35:25;32.72;;;15.77;;
76593;SDS011;65482;50.240;14.302;2023-03-01T16:37:50;30.02;;;14.85;;
76593;SDS011;65482;50.240;14.302;2023-03-01T16:40:20;28.92;;;15.43;;
76593;SDS011;65482;50.240;14.302;2023-03-01T16:42:47;38.72;;;15.55;;
76593;SDS011;65482;50.240;14.302;2023-03-01T16:45:14;27.58;;;15.68;;
76593;SDS011;65482;50.240;14.302;2023-03-01T16:47:39;31.45;;;15.13;;
76593;SDS011;65482;50.240;14.302;2023-03-01T16:50:05;30.02;;;15.35;;
76593;SDS011;65482;50.240;14.302;2023-03-01T16:52:31;34.97;;;15.35;;
76593;SDS011;65482;50.240;14.302;2023-03-01T16:54:59;35.25;;;17.55;;
76593;SDS011;65482;50.240;14.302;2023-03-01T16:57:25;35.47;;;18.60;;
76593;SDS011;65482;50.240;14.302;2023-03-01T16:59:51;33.80;;;16.95;;
76593;SDS011;65482;50.240;14.302;2023-03-01T17:02:18;38.80;;;17.15;;
76593;SDS011;65482;50.240;14.302;2023-03-01T17:04:51;34.05;;;16.95;;
76593;SDS011;65482;50.240;14.302;2023-03-01T17:07:18;42.22;;;18.85;;
76593;SDS011;65482;50.240;14.302;2023-03-01T17:09:44;38.75;;;19.60;;
76593;SDS011;65482;50.240;14.302;2023-03-01T17:12:13;39.42;;;18.05;;
76593;SDS011;65482;50.240;14.302;2023-03-01T17:14:40;42.35;;;21.48;;
76593;SDS011;65482;50.240;14.302;2023-03-01T17:17:09;45.60;;;21.60;;
76593;SDS011;65482;50.240;14.302;2023-03-01T17:19:36;55.20;;;24.48;;
76593;SDS011;65482;50.240;14.302;2023-03-01T17:22:06;78.72;;;33.10;;
76593;SDS011;65482;50.240;14.302;2023-03-01T17:24:49;58.95;;;25.30;;
76593;SDS011;65482;50.240;14.302;2023-03-01T17:27:46;172.57;;;61.72;;
76593;SDS011;65482;50.240;14.302;2023-03-01T17:30:48;180.27;;;63.13;;
76593;SDS011;65482;50.240;14.302;2023-03-01T17:33:26;154.30;;;54.53;;
76593;SDS011;65482;50.240;14.302;2023-03-01T17:36:28;92.65;;;33.40;;
76593;SDS011;65482;50.240;14.302;2023-03-01T17:39:18;74.60;;;30.65;;
76593;SDS011;65482;50.240;14.302;2023-03-01T17:42:17;78.47;;;29.00;;
76593;SDS011;65482;50.240;14.302;2023-03-01T17:45:00;112.75;;;32.30;;
76593;SDS011;65482;50.240;14.302;2023-03-01T17:48:16;114.10;;;33.13;;
76593;SDS011;65482;50.240;14.302;2023-03-01T17:50:52;94.07;;;31.55;;
76593;SDS011;65482;50.240;14.302;2023-03-01T17:53:58;90.55;;;31.60;;
76593;SDS011;65482;50.240;14.302;2023-03-01T17:56:40;85.43;;;31.95;;
76593;SDS011;65482;50.240;14.302;2023-03-01T17:59:14;69.50;;;30.30;;
76593;SDS011;65482;50.240;14.302;2023-03-01T18:02:00;69.70;;;29.05;;
76593;SDS011;65482;50.240;14.302;2023-03-01T18:04:59;77.45;;;31.45;;
76593;SDS011;65482;50.240;14.302;2023-03-01T18:07:34;84.38;;;33.10;;
76593;SDS011;65482;50.240;14.302;2023-03-01T18:10:20;78.15;;;31.70;;
76593;SDS011;65482;50.240;14.302;2023-03-01T18:13:16;77.40;;;31.73;;
76593;SDS011;65482;50.240;14.302;2023-03-01T18:15:58;85.22;;;33.53;;
76593;SDS011;65482;50.240;14.302;2023-03-01T18:19:09;89.38;;;36.00;;
76593;SDS011;65482;50.240;14.302;2023-03-01T18:28:26;74.63;;;33.17;;
76593;SDS011;65482;50.240;14.302;2023-03-01T18:31:00;73.07;;;32.60;;
76593;SDS011;65482;50.240;14.302;2023-03-01T18:33:54;85.93;;;35.53;;
76593;SDS011;65482;50.240;14.302;2023-03-01T18:36:51;103.03;;;38.75;;
76593;SDS011;65482;50.240;14.302;2023-03-01T18:39:29;132.90;;;47.47;;
76593;SDS011;65482;50.240;14.302;2023-03-01T18:42:06;95.40;;;39.58;;
76593;SDS011;65482;50.240;14.302;2023-03-01T18:44:33;87.93;;;36.70;;
76593;SDS011;65482;50.240;14.302;2023-03-01T18:46:59;96.90;;;39.80;;
76593;SDS011;65482;50.240;14.302;2023-03-01T18:49:25;101.43;;;42.67;;
76593;SDS011;65482;50.240;14.302;2023-03-01T18:51:52;92.00;;;37.35;;
76593;SDS011;65482;50.240;14.302;2023-03-01T18:54:17;88.75;;;37.92;;
76593;SDS011;65482;50.240;14.302;2023-03-01T18:56:44;71.68;;;33.65;;
76593;SDS011;65482;50.240;14.302;2023-03-01T18:59:10;65.82;;;30.05;;
76593;SDS011;65482;50.240;14.302;2023-03-01T19:01:36;70.70;;;33.70;;
76593;SDS011;65482;50.240;14.302;2023-03-01T19:04:02;74.03;;;33.85;;
76593;SDS011;65482;50.240;14.302;2023-03-01T19:06:30;81.70;;;37.13;;
76593;SDS011;65482;50.240;14.302;2023-03-01T19:08:57;88.10;;;40.28;;
76593;SDS011;65482;50.240;14.302;2023-03-01T19:11:23;92.30;;;41.10;;
76593;SDS011;65482;50.240;14.302;2023-03-01T19:13:51;114.63;;;51.40;;
76593;SDS011;65482;50.240;14.302;2023-03-01T19:16:22;116.68;;;50.90;;
76593;SDS011;65482;50.240;14.302;2023-03-01T19:18:53;105.70;;;45.75;;
76593;SDS011;65482;50.240;14.302;2023-03-01T19:21:28;86.60;;;40.22;;
76593;SDS011;65482;50.240;14.302;2023-03-01T19:23:55;72.07;;;34.80;;
76593;SDS011;65482;50.240;14.302;2023-03-01T19:26:22;71.85;;;33.38;;
76593;SDS011;65482;50.240;14.302;2023-03-01T19:28:50;73.38;;;33.17;;
76593;SDS011;65482;50.240;14.302;2023-03-01T19:31:17;83.38;;;40.55;;
76593;SDS011;65482;50.240;14.302;2023-03-01T19:33:48;84.68;;;38.92;;
76593;SDS011;65482;50.240;14.302;2023-03-01T19:36:48;71.63;;;34.50;;
76593;SDS011;65482;50.240;14.302;2023-03-01T19:39:36;76.47;;;37.45;;
76593;SDS011;65482;50.240;14.302;2023-03-01T19:42:23;89.30;;;39.93;;
76593;SDS011;65482;50.240;14.302;2023-03-01T19:45:05;96.90;;;43.97;;
76593;SDS011;65482;50.240;14.302;2023-03-01T19:47:54;114.25;;;49.45;;
76593;SDS011;65482;50.240;14.302;2023-03-01T19:50:41;128.23;;;55.42;;
76593;SDS011;65482;50.240;14.302;2023-03-01T19:53:47;117.45;;;48.10;;
76593;SDS011;65482;50.240;14.302;2023-03-01T19:56:21;82.22;;;35.90;;
76593;SDS011;65482;50.240;14.302;2023-03-01T19:59:17;69.15;;;31.77;;
76593;SDS011;65482;50.240;14.302;2023-03-01T20:02:12;82.72;;;32.92;;
76593;SDS011;65482;50.240;14.302;2023-03-01T20:05:00;102.25;;;35.35;;
76593;SDS011;65482;50.240;14.302;2023-03-01T20:07:54;91.93;;;35.38;;
76593;SDS011;65482;50.240;14.302;2023-03-01T20:10:40;86.20;;;33.58;;
76593;SDS011;65482;50.240;14.302;2023-03-01T20:13:22;85.45;;;33.72;;
76593;SDS011;65482;50.240;14.302;2023-03-01T20:16:11;91.60;;;32.92;;
76593;SDS011;65482;50.240;14.302;2023-03-01T20:22:47;82.07;;;31.80;;
76593;SDS011;65482;50.240;14.302;2023-03-01T20:25:24;73.80;;;31.38;;
76593;SDS011;65482;50.240;14.302;2023-03-01T20:28:07;74.50;;;33.17;;
76593;SDS011;65482;50.240;14.302;2023-03-01T20:31:10;78.68;;;32.38;;
76593;SDS011;65482;50.240;14.302;2023-03-01T20:33:47;84.93;;;35.08;;
76593;SDS011;65482;50.240;14.302;2023-03-01T20:39:15;94.25;;;35.80;;
76593;SDS011;65482;50.240;14.302;2023-03-01T20:42:02;104.40;;;39.90;;
76593;SDS011;65482;50.240;14.302;2023-03-01T20:44:54;104.82;;;40.80;;
76593;SDS011;65482;50.240;14.302;2023-03-01T20:47:43;89.70;;;36.28;;
76593;SDS011;65482;50.240;14.302;2023-03-01T20:50:17;86.18;;;36.42;;
76593;SDS011;65482;50.240;14.302;2023-03-01T20:52:56;75.60;;;33.08;;
76593;SDS011;65482;50.240;14.302;2023-03-01T20:55:47;68.50;;;30.33;;
76593;SDS011;65482;50.240;14.302;2023-03-01T20:58:47;66.53;;;28.48;;
76593;SDS011;65482;50.240;14.302;2023-03-01T21:01:29;66.10;;;29.13;;
76593;SDS011;65482;50.240;14.302;2023-03-01T21:04:18;66.38;;;28.85;;
76593;SDS011;65482;50.240;14.302;2023-03-01T21:07:22;66.88;;;27.88;;
76593;SDS011;65482;50.240;14.302;2023-03-01T21:10:02;66.63;;;28.60;;
76593;SDS011;65482;50.240;14.302;2023-03-01T21:12:58;68.50;;;28.75;;
76593;SDS011;65482;50.240;14.302;2023-03-01T21:16:00;70.90;;;30.48;;
76593;SDS011;65482;50.240;14.302;2023-03-01T21:18:37;68.30;;;30.42;;
76593;SDS011;65482;50.240;14.302;2023-03-01T21:21:28;71.93;;;30.80;;
76593;SDS011;65482;50.240;14.302;2023-03-01T21:24:20;64.47;;;29.50;;
76593;SDS011;65482;50.240;14.302;2023-03-01T21:26:49;74.95;;;31.15;;
76593;SDS011;65482;50.240;14.302;2023-03-01T21:29:42;70.47;;;30.50;;
76593;SDS011;65482;50.240;14.302;2023-03-01T21:32:19;76.28;;;32.20;;
76593;SDS011;65482;50.240;14.302;2023-03-01T21:34:48;73.00;;;32.45;;
76593;SDS011;65482;50.240;14.302;2023-03-01T21:38:10;73.30;;;32.67;;
76593;SDS011;65482;50.240;14.302;2023-03-01T21:40:58;78.90;;;32.42;;
76593;SDS011;65482;50.240;14.302;2023-03-01T21:47:00;75.82;;;32.00;;
76593;SDS011;65482;50.240;14.302;2023-03-01T21:49:48;79.10;;;31.42;;
76593;SDS011;65482;50.240;14.302;2023-03-01T21:52:53;68.75;;;30.90;;
76593;SDS011;65482;50.240;14.302;2023-03-01T21:55:55;75.57;;;31.60;;
76593;SDS011;65482;50.240;14.302;2023-03-01T21:58:41;73.63;;;30.75;;
76593;SDS011;65482;50.240;14.302;2023-03-01T22:01:18;77.57;;;32.92;;
76593;SDS011;65482;50.240;14.302;2023-03-01T22:04:09;80.10;;;32.15;;
76593;SDS011;65482;50.240;14.302;2023-03-01T22:06:58;76.47;;;33.67;;
76593;SDS011;65482;50.240;14.302;2023-03-01T22:09:58;75.55;;;33.10;;